Terminal Aerodrome Forecast
Issued by NWS

Home | Current Version | Previous Version | Text Only | Print | Product List | Glossary On
Versions: 1 2 3 4 5 6 7 8 9 10 11 12 13 14 15 16 17 18 19 20 21 22 23 24 25
000
FTUS41 KOKX 050200 AAA
TAFSWF
TAF AMD
KSWF 050228Z 0502/0606 29005KT P6SM OVC050
     FM050400 30005KT 1SM -SN BR OVC008
     FM051200 33010KT 2SM -SN BR SCT008 OVC015
     FM051500 34010G16KT P6SM SCT020 BKN060
     FM051800 32009KT P6SM OVC100
      AMD NOT SKED=

USA.gov is the U.S. government's official web portal to all federal, state and local government web resources and services.